createdAt,value
2022-12-27T00:00:42.161Z,0.00
2022-12-27T00:01:42.185Z,0.00
2022-12-27T00:02:42.216Z,0.00
2022-12-27T00:03:42.127Z,0.00
2022-12-27T00:04:42.100Z,0.00
2022-12-27T00:05:42.106Z,0.00
2022-12-27T00:06:42.069Z,0.00
2022-12-27T00:07:42.060Z,0.00
2022-12-27T00:08:42.075Z,0.00
2022-12-27T00:09:42.057Z,0.00
2022-12-27T00:10:42.044Z,0.00
2022-12-27T00:11:42.018Z,0.00
2022-12-27T00:12:42.016Z,0.00
2022-12-27T00:13:42.010Z,0.00
2022-12-27T00:14:41.998Z,0.00
2022-12-27T00:15:41.989Z,0.00
2022-12-27T00:16:42.013Z,0.00
2022-12-27T00:17:41.958Z,0.00
2022-12-27T00:18:41.961Z,0.00
2022-12-27T00:19:41.946Z,0.00
2022-12-27T00:20:41.944Z,0.00
2022-12-27T00:21:41.909Z,0.00
2022-12-27T00:22:41.907Z,0.00
2022-12-27T00:23:41.926Z,0.00
2022-12-27T00:24:41.880Z,0.00
2022-12-27T00:25:41.873Z,0.00
2022-12-27T00:26:41.938Z,0.00
2022-12-27T00:27:41.875Z,0.00
2022-12-27T00:28:41.842Z,0.00
2022-12-27T00:29:41.847Z,0.00
2022-12-27T00:30:41.846Z,0.00
2022-12-27T00:31:41.849Z,0.00
2022-12-27T00:32:41.807Z,0.00
2022-12-27T00:33:41.803Z,0.00
2022-12-27T00:34:41.780Z,0.00
2022-12-27T00:35:41.765Z,0.00
2022-12-27T00:36:41.758Z,0.00
2022-12-27T00:37:41.734Z,0.00
2022-12-27T00:38:41.769Z,0.00
2022-12-27T00:39:41.712Z,0.00
2022-12-27T00:40:41.717Z,0.00
2022-12-27T00:41:41.692Z,0.00
2022-12-27T00:42:41.699Z,0.00
2022-12-27T00:43:41.712Z,0.00
2022-12-27T00:44:41.684Z,0.00
2022-12-27T00:45:41.691Z,0.00
2022-12-27T00:46:41.643Z,0.00
2022-12-27T00:47:41.647Z,0.00
2022-12-27T00:48:41.647Z,0.00
2022-12-27T00:49:41.614Z,0.00
2022-12-27T00:50:41.620Z,0.00
2022-12-27T00:51:41.611Z,0.00
2022-12-27T00:52:41.614Z,0.00
2022-12-27T00:53:41.608Z,0.00
2022-12-27T00:54:41.574Z,0.00
2022-12-27T00:55:41.583Z,0.00
2022-12-27T00:56:41.545Z,0.00
2022-12-27T00:57:41.539Z,0.00
2022-12-27T00:58:41.603Z,0.00
2022-12-27T00:59:41.606Z,0.00
2022-12-27T01:00:41.623Z,0.00
2022-12-27T01:01:41.587Z,0.00
2022-12-27T01:02:41.490Z,0.00
2022-12-27T01:03:41.554Z,0.00
2022-12-27T01:04:41.471Z,0.00
2022-12-27T01:05:41.480Z,0.00
2022-12-27T01:06:41.445Z,0.00
2022-12-27T01:07:41.424Z,0.00
2022-12-27T01:08:41.444Z,0.00
2022-12-27T01:09:41.414Z,0.00
2022-12-27T01:10:41.408Z,0.00
2022-12-27T01:11:41.395Z,0.00
2022-12-27T01:12:41.374Z,0.00
2022-12-27T01:13:41.378Z,0.00
2022-12-27T01:14:41.362Z,0.00
2022-12-27T01:15:41.334Z,0.00
2022-12-27T01:16:41.364Z,0.00
2022-12-27T01:17:41.312Z,0.00
2022-12-27T01:18:41.316Z,0.00
2022-12-27T01:19:41.309Z,0.00
2022-12-27T01:20:41.285Z,0.00
2022-12-27T01:21:41.272Z,0.00
2022-12-27T01:22:41.282Z,0.00
2022-12-27T01:23:41.298Z,0.00
2022-12-27T01:24:41.247Z,0.00
2022-12-27T01:25:41.226Z,0.00
2022-12-27T01:26:41.225Z,0.00
2022-12-27T01:27:41.204Z,0.00
2022-12-27T01:28:41.208Z,0.00
2022-12-27T01:29:41.196Z,0.00
2022-12-27T01:30:41.179Z,0.00
2022-12-27T01:31:41.320Z,0.00
2022-12-27T01:32:41.168Z,0.00
2022-12-27T01:33:41.148Z,0.00
2022-12-27T01:34:41.140Z,0.00
2022-12-27T01:35:41.120Z,0.00
2022-12-27T01:36:41.116Z,0.00
2022-12-27T01:37:41.106Z,0.00
2022-12-27T01:38:41.105Z,0.00
2022-12-27T01:39:41.108Z,0.00
2022-12-27T01:40:41.080Z,0.00
2022-12-27T01:41:41.074Z,0.00
2022-12-27T01:42:41.086Z,0.00
2022-12-27T01:43:41.068Z,0.00
2022-12-27T01:44:41.035Z,0.00
2022-12-27T01:45:41.055Z,0.00
2022-12-27T01:46:41.010Z,0.00
2022-12-27T01:47:40.987Z,0.00
2022-12-27T01:48:41.049Z,0.00
2022-12-27T01:49:40.969Z,0.00
2022-12-27T01:50:41.008Z,0.00
2022-12-27T01:51:40.959Z,0.00
2022-12-27T01:52:41.008Z,0.00
2022-12-27T01:53:40.940Z,0.00
2022-12-27T01:54:40.921Z,0.00
2022-12-27T01:55:40.929Z,0.00
2022-12-27T01:56:40.897Z,0.00
2022-12-27T01:57:40.889Z,0.00
2022-12-27T01:58:40.901Z,0.00
2022-12-27T01:59:40.867Z,0.00
2022-12-27T02:00:40.917Z,0.00
2022-12-27T02:01:41.044Z,0.00
2022-12-27T02:02:40.958Z,0.00
2022-12-27T02:03:40.837Z,0.00
2022-12-27T02:04:40.809Z,0.00
2022-12-27T02:05:40.812Z,0.00
2022-12-27T02:06:40.794Z,0.00
2022-12-27T02:07:40.792Z,0.00
2022-12-27T02:08:40.781Z,0.00
2022-12-27T02:09:40.765Z,0.00
2022-12-27T02:10:40.751Z,0.00
2022-12-27T02:11:40.742Z,0.00
2022-12-27T02:12:40.725Z,0.00
2022-12-27T02:13:40.765Z,0.00
2022-12-27T02:14:40.841Z,0.00
2022-12-27T02:15:40.697Z,0.00
2022-12-27T02:16:40.709Z,0.00
2022-12-27T02:17:40.669Z,0.00
2022-12-27T02:18:40.660Z,0.00
2022-12-27T02:19:40.673Z,0.00
2022-12-27T02:20:40.641Z,0.00
2022-12-27T02:21:40.641Z,0.00
2022-12-27T02:22:40.655Z,0.00
2022-12-27T02:23:40.656Z,0.00
2022-12-27T02:24:40.603Z,0.00
2022-12-27T02:25:40.592Z,0.00
2022-12-27T02:26:40.587Z,0.00
2022-12-27T02:27:40.563Z,0.00
2022-12-27T02:28:40.592Z,0.00
2022-12-27T02:29:40.549Z,0.00
2022-12-27T02:30:40.570Z,0.00
2022-12-27T02:31:40.522Z,0.00
2022-12-27T02:32:40.534Z,0.00
2022-12-27T02:33:40.498Z,0.00
2022-12-27T02:34:40.518Z,0.00
2022-12-27T02:35:40.490Z,0.00
2022-12-27T02:36:40.471Z,0.00
2022-12-27T02:37:40.483Z,0.00
2022-12-27T02:38:40.454Z,0.00
2022-12-27T02:39:40.441Z,0.00
2022-12-27T02:40:40.426Z,0.00
2022-12-27T02:41:40.427Z,0.00
2022-12-27T02:42:40.414Z,0.00
2022-12-27T02:43:40.404Z,0.00
2022-12-27T02:44:40.415Z,0.00
2022-12-27T02:45:40.376Z,0.00
2022-12-27T02:46:40.400Z,0.00
2022-12-27T02:47:40.354Z,0.00
2022-12-27T02:48:40.341Z,0.00
2022-12-27T02:49:40.361Z,0.00
2022-12-27T02:50:40.337Z,0.00
2022-12-27T02:51:40.304Z,0.00
2022-12-27T02:52:40.303Z,0.00
2022-12-27T02:53:40.295Z,0.00
2022-12-27T02:54:40.283Z,0.00
2022-12-27T02:55:40.280Z,0.00
2022-12-27T02:56:40.257Z,0.00
2022-12-27T02:57:40.236Z,0.00
2022-12-27T02:58:40.245Z,0.00
2022-12-27T06:47:55.837Z,0.00
2022-12-27T06:48:55.812Z,0.00
2022-12-27T06:49:55.852Z,0.00
2022-12-27T06:50:55.787Z,4.00
2022-12-27T06:51:59.582Z,4.00
2022-12-27T06:52:55.766Z,4.00
2022-12-27T06:53:55.774Z,0.00
2022-12-27T06:54:55.751Z,4.00
2022-12-27T06:55:55.738Z,4.00
2022-12-27T06:56:55.726Z,4.00
2022-12-27T06:57:55.724Z,4.00
2022-12-27T06:58:55.722Z,4.00
2022-12-27T06:59:55.694Z,4.00
2022-12-27T07:00:55.719Z,8.00
2022-12-27T07:01:55.841Z,8.00
2022-12-27T07:02:55.719Z,8.00
2022-12-27T07:03:55.671Z,12.00
2022-12-27T07:04:55.637Z,16.00
2022-12-27T07:05:55.625Z,16.00
2022-12-27T07:06:55.611Z,20.00
2022-12-27T07:07:55.633Z,24.00
2022-12-27T07:08:55.618Z,24.00
2022-12-27T07:09:55.610Z,32.00
2022-12-27T07:10:55.578Z,36.00
2022-12-27T07:11:55.571Z,40.00
2022-12-27T07:12:55.551Z,48.00
2022-12-27T07:13:55.552Z,52.00
2022-12-27T07:14:55.525Z,60.00
2022-12-27T07:15:55.523Z,68.00
2022-12-27T07:16:55.605Z,76.00
2022-12-27T07:17:55.517Z,88.00
2022-12-27T07:18:55.523Z,100.00
2022-12-27T07:19:55.497Z,116.00
2022-12-27T07:20:55.503Z,132.00
2022-12-27T07:21:55.487Z,144.00
2022-12-27T07:22:55.446Z,156.00
2022-12-27T07:23:55.466Z,176.00
2022-12-27T07:24:55.416Z,196.00
2022-12-27T07:25:55.459Z,220.00
2022-12-27T07:26:55.406Z,240.00
2022-12-27T07:27:55.427Z,260.00
2022-12-27T07:28:55.419Z,288.00
2022-12-27T07:29:55.433Z,316.00
2022-12-27T07:30:55.355Z,340.00
2022-12-27T07:31:55.406Z,364.00
2022-12-27T07:32:55.347Z,392.00
2022-12-27T07:33:55.374Z,420.00
2022-12-27T07:34:55.325Z,448.00
2022-12-27T07:35:55.308Z,480.00
2022-12-27T07:36:55.301Z,512.00
2022-12-27T07:37:55.287Z,544.00
2022-12-27T07:38:55.300Z,576.00
2022-12-27T07:39:55.265Z,620.00
2022-12-27T07:40:55.250Z,672.00
2022-12-27T07:41:55.255Z,720.00
2022-12-27T07:42:55.227Z,744.00
2022-12-27T07:43:55.239Z,764.00
2022-12-27T07:44:55.207Z,796.00
2022-12-27T07:45:55.255Z,852.00
2022-12-27T07:46:55.197Z,920.00
2022-12-27T07:47:55.197Z,976.00
2022-12-27T07:48:55.181Z,1024.00
2022-12-27T07:49:55.162Z,1076.00
2022-12-27T07:50:55.156Z,1152.00
2022-12-27T07:51:55.148Z,1236.00
2022-12-27T07:52:55.139Z,1308.00
2022-12-27T07:53:55.156Z,1376.00
2022-12-27T07:54:55.108Z,1440.00
2022-12-27T07:55:55.096Z,1496.00
2022-12-27T07:56:55.098Z,1548.00
2022-12-27T07:57:55.070Z,1596.00
2022-12-27T07:58:55.098Z,1652.00
2022-12-27T07:59:55.069Z,1704.00
2022-12-27T08:00:55.084Z,1760.00
2022-12-27T08:01:55.196Z,1812.00
2022-12-27T08:02:55.055Z,1868.00
2022-12-27T08:03:55.158Z,1928.00
2022-12-27T08:04:55.009Z,1980.00
2022-12-27T08:05:54.991Z,2040.00
2022-12-27T08:06:54.983Z,2092.00
2022-12-27T08:07:54.978Z,2148.00
2022-12-27T08:08:54.961Z,2200.00
2022-12-27T08:09:54.959Z,2248.00
2022-12-27T08:10:55.042Z,2308.00
2022-12-27T08:11:55.259Z,2384.00
2022-12-27T08:12:55.040Z,2468.00
2022-12-27T08:13:55.052Z,2544.00
2022-12-27T08:14:54.901Z,2676.00
2022-12-27T08:15:54.881Z,2880.00
2022-12-27T08:16:54.906Z,3072.00
2022-12-27T08:17:54.861Z,3144.00
2022-12-27T08:18:55.411Z,3108.00
2022-12-27T08:19:54.889Z,3048.00
2022-12-27T08:20:54.875Z,2976.00
2022-12-27T08:21:54.839Z,2936.00
2022-12-27T08:22:54.820Z,2944.00
2022-12-27T08:23:54.831Z,2976.00
2022-12-27T08:24:54.814Z,3020.00
2022-12-27T08:25:54.791Z,3076.00
2022-12-27T08:26:54.833Z,3124.00
2022-12-27T08:27:54.838Z,3192.00
2022-12-27T08:28:54.778Z,3280.00
2022-12-27T08:29:54.909Z,3384.00
2022-12-27T08:30:54.847Z,3376.00
2022-12-27T08:31:54.741Z,3348.00
2022-12-27T08:32:54.721Z,3368.00
2022-12-27T08:33:58.435Z,3404.00
2022-12-27T08:34:54.710Z,3444.00
2022-12-27T08:35:55.213Z,3492.00
2022-12-27T08:36:56.244Z,3544.00
2022-12-27T08:37:54.679Z,3600.00
2022-12-27T08:38:54.641Z,3656.00
2022-12-27T08:40:00.808Z,3720.00
2022-12-27T08:40:59.521Z,3768.00
2022-12-27T08:41:54.612Z,3812.00
2022-12-27T08:42:54.632Z,3884.00
2022-12-27T08:43:54.594Z,3944.00
2022-12-27T08:44:54.590Z,3996.00
2022-12-27T08:45:54.642Z,4016.00
2022-12-27T08:46:54.557Z,4040.00
2022-12-27T08:47:54.584Z,4096.00
2022-12-27T08:48:54.523Z,4144.00
2022-12-27T08:49:54.554Z,4192.00
2022-12-27T08:50:54.514Z,4220.00
2022-12-27T08:51:54.514Z,4256.00
2022-12-27T08:52:54.497Z,4288.00
2022-12-27T08:53:54.489Z,4320.00
2022-12-27T08:54:54.478Z,4352.00
2022-12-27T08:55:54.464Z,4400.00
2022-12-27T08:56:54.445Z,4416.00
2022-12-27T08:57:54.438Z,4416.00
2022-12-27T08:58:54.452Z,4480.00
2022-12-27T08:59:54.427Z,4552.00
2022-12-27T09:00:54.415Z,4608.00
2022-12-27T09:01:54.581Z,4664.00
2022-12-27T09:02:54.408Z,4720.00
2022-12-27T09:03:54.391Z,4780.00
2022-12-27T09:04:54.374Z,4824.00
2022-12-27T09:05:58.375Z,4848.00
2022-12-27T09:06:54.334Z,4892.00
2022-12-27T09:07:54.348Z,4928.00
2022-12-27T09:08:54.389Z,4976.00
2022-12-27T09:09:54.317Z,5004.00
2022-12-27T09:10:54.295Z,5024.00
2022-12-27T09:11:54.319Z,5052.00
2022-12-27T09:12:54.280Z,5080.00
2022-12-27T09:13:54.306Z,5124.00
2022-12-27T09:14:54.265Z,5160.00
2022-12-27T09:15:54.271Z,5212.00
2022-12-27T09:16:54.494Z,5268.00
2022-12-27T09:17:54.246Z,5344.00
2022-12-27T09:18:54.217Z,5440.00
2022-12-27T09:19:54.207Z,5508.00
2022-12-27T09:20:54.187Z,5536.00
2022-12-27T09:21:54.192Z,5524.00
2022-12-27T09:22:54.178Z,5504.00
2022-12-27T09:23:54.183Z,5500.00
2022-12-27T09:24:54.155Z,5504.00
2022-12-27T09:25:54.139Z,5528.00
2022-12-27T09:26:54.133Z,5576.00
2022-12-27T09:27:54.128Z,5628.00
2022-12-27T09:28:54.097Z,5684.00
2022-12-27T09:29:54.109Z,5752.00
2022-12-27T09:30:54.104Z,5820.00
2022-12-27T09:31:54.075Z,5892.00
2022-12-27T09:32:54.058Z,5984.00
2022-12-27T09:33:54.055Z,6060.00
2022-12-27T09:34:54.046Z,6124.00
2022-12-27T09:35:54.040Z,6220.00
2022-12-27T09:36:54.128Z,6328.00
2022-12-27T09:37:54.128Z,6516.00
2022-12-27T09:38:54.004Z,7340.00
2022-12-27T09:39:54.024Z,10108.00
2022-12-27T09:40:53.990Z,13828.00
2022-12-27T09:43:07.579Z,9852.00
2022-12-27T09:43:54.946Z,7936.00
2022-12-27T09:44:53.979Z,7372.00
2022-12-27T09:45:54.056Z,7188.00
2022-12-27T09:46:53.914Z,7296.00
2022-12-27T09:47:53.920Z,7488.00
2022-12-27T09:48:53.903Z,7632.00
2022-12-27T09:49:53.880Z,7584.00
2022-12-27T09:50:53.901Z,7476.00
2022-12-27T09:51:53.950Z,7488.00
2022-12-27T09:52:53.852Z,7432.00
2022-12-27T09:53:53.842Z,7712.00
2022-12-27T09:54:56.740Z,7328.00
2022-12-27T09:55:54.832Z,6832.00
2022-12-27T09:57:18.776Z,7100.00
2022-12-27T09:57:54.792Z,7544.00
2022-12-27T09:58:53.862Z,7284.00
2022-12-27T09:59:53.773Z,7740.00
2022-12-27T10:00:53.803Z,8184.00
2022-12-27T10:01:53.815Z,8504.00
2022-12-27T10:02:53.742Z,9948.00
2022-12-27T10:03:53.730Z,9104.00
2022-12-27T10:05:19.222Z,8916.00
2022-12-27T10:05:56.493Z,8800.00
2022-12-27T10:06:53.692Z,8772.00
2022-12-27T10:07:53.693Z,8704.00
2022-12-27T10:08:53.777Z,8612.00
2022-12-27T10:09:53.663Z,8580.00
2022-12-27T10:10:53.714Z,8736.00
2022-12-27T10:11:53.683Z,8776.00
2022-12-27T10:12:53.631Z,8680.00
2022-12-27T10:13:53.626Z,8844.00
2022-12-27T10:14:53.624Z,14256.00
2022-12-27T10:15:53.635Z,25280.00
2022-12-27T10:16:53.595Z,30560.00
2022-12-27T10:17:53.785Z,21152.00
2022-12-27T10:18:53.580Z,12616.00
2022-12-27T10:19:53.585Z,24384.00
2022-12-27T10:20:53.580Z,27328.00
2022-12-27T10:21:53.547Z,16736.00
2022-12-27T10:22:53.557Z,19008.00
2022-12-27T10:23:53.529Z,34464.00
2022-12-27T10:24:53.523Z,33536.00
2022-12-27T10:25:53.497Z,16576.00
2022-12-27T10:26:53.489Z,21664.00
2022-12-27T10:27:53.483Z,41472.00
2022-12-27T10:28:57.127Z,54528.00
2022-12-27T10:29:53.466Z,39136.00
2022-12-27T10:30:53.530Z,24832.00
2022-12-27T10:31:53.439Z,34048.00
2022-12-27T10:32:53.422Z,45728.00
2022-12-27T10:33:53.427Z,49696.00
2022-12-27T10:34:53.414Z,54816.00
2022-12-27T10:35:53.483Z,54528.00
2022-12-27T10:36:53.375Z,52896.00
2022-12-27T10:37:53.374Z,57792.00
2022-12-27T10:38:53.369Z,64128.00
2022-12-27T10:39:53.351Z,66912.00
2022-12-27T10:40:53.351Z,70848.00
2022-12-27T10:41:53.339Z,46496.00
2022-12-27T10:42:53.301Z,45376.00
2022-12-27T10:43:53.342Z,62912.00
2022-12-27T10:44:53.310Z,69728.00
2022-12-27T10:45:53.274Z,71744.00
2022-12-27T10:46:53.321Z,67040.00
2022-12-27T10:47:53.265Z,59680.00
2022-12-27T10:49:19.542Z,61952.00
2022-12-27T10:49:54.473Z,69088.00
2022-12-27T10:50:53.223Z,72864.00
2022-12-27T10:51:53.238Z,72480.00
2022-12-27T10:52:57.469Z,36896.00
2022-12-27T10:53:53.496Z,23328.00
2022-12-27T10:54:53.716Z,15764.00
2022-12-27T10:55:53.186Z,14760.00
2022-12-27T10:56:53.176Z,14368.00
2022-12-27T10:57:53.167Z,16512.00
2022-12-27T10:58:58.499Z,14324.00
2022-12-27T10:59:54.179Z,15212.00
2022-12-27T11:00:53.218Z,15032.00
2022-12-27T11:01:53.554Z,15532.00
2022-12-27T11:02:53.216Z,17344.00
2022-12-27T11:03:53.107Z,18560.00
2022-12-27T11:04:53.096Z,35392.00
2022-12-27T11:05:53.231Z,52736.00
2022-12-27T11:06:53.070Z,30560.00
2022-12-27T11:07:53.104Z,67744.00
2022-12-27T11:08:53.028Z,67200.00
2022-12-27T11:09:53.450Z,33856.00
2022-12-27T11:10:53.022Z,18304.00
2022-12-27T11:11:53.018Z,22208.00
2022-12-27T11:12:52.998Z,21088.00
2022-12-27T11:13:53.069Z,21408.00
2022-12-27T11:14:52.983Z,34688.00
2022-12-27T11:15:56.810Z,61504.00
2022-12-27T11:16:53.984Z,66976.00
2022-12-27T11:17:52.947Z,66272.00
2022-12-27T11:18:52.948Z,64256.00
2022-12-27T11:19:52.979Z,60736.00
2022-12-27T11:20:52.995Z,67424.00
2022-12-27T11:21:52.892Z,67136.00
2022-12-27T11:22:52.882Z,69216.00
2022-12-27T11:23:52.943Z,63648.00
2022-12-27T11:24:52.853Z,62304.00
2022-12-27T11:25:52.857Z,60576.00
2022-12-27T11:26:54.101Z,71616.00
2022-12-27T11:27:53.783Z,71072.00
2022-12-27T11:28:52.856Z,70624.00
2022-12-27T11:29:53.027Z,70144.00
2022-12-27T11:30:52.785Z,70528.00
2022-12-27T11:31:52.823Z,68800.00
2022-12-27T11:32:52.796Z,68512.00
2022-12-27T11:33:52.781Z,65856.00
2022-12-27T11:34:52.752Z,56512.00
2022-12-27T11:35:52.737Z,39744.00
2022-12-27T11:36:52.757Z,54368.00
2022-12-27T11:37:52.722Z,59936.00
2022-12-27T11:38:52.841Z,74048.00
2022-12-27T11:39:52.727Z,77312.00
2022-12-27T11:40:52.699Z,78176.00
2022-12-27T11:41:52.683Z,78016.00
2022-12-27T11:42:52.672Z,33664.00
2022-12-27T11:43:53.900Z,57920.00
2022-12-27T11:44:52.643Z,35968.00
2022-12-27T11:45:52.627Z,26272.00
2022-12-27T11:46:58.602Z,57344.00
2022-12-27T11:47:53.630Z,65984.00
2022-12-27T11:48:52.591Z,29824.00
2022-12-27T11:49:52.612Z,22784.00
2022-12-27T11:50:52.571Z,43808.00
2022-12-27T11:51:52.569Z,24224.00
2022-12-27T11:52:52.594Z,24512.00
2022-12-27T11:53:56.219Z,44000.00
2022-12-27T11:54:52.543Z,49760.00
2022-12-27T11:55:52.541Z,48448.00
2022-12-27T11:56:52.512Z,31360.00
2022-12-27T11:57:52.508Z,28704.00
2022-12-27T11:58:52.521Z,65856.00
2022-12-27T11:59:52.625Z,61312.00
2022-12-27T12:00:52.475Z,59840.00
2022-12-27T12:01:52.547Z,59008.00
2022-12-27T12:02:52.521Z,55392.00
2022-12-27T12:03:52.442Z,60032.00
2022-12-27T12:04:52.456Z,51168.00
2022-12-27T12:05:52.432Z,46688.00
2022-12-27T12:06:52.403Z,44352.00
2022-12-27T12:07:52.415Z,34240.00
2022-12-27T12:08:52.597Z,30048.00
2022-12-27T12:09:52.375Z,29472.00
2022-12-27T12:10:52.368Z,28544.00
2022-12-27T12:11:55.106Z,31328.00
2022-12-27T12:12:52.346Z,30496.00
2022-12-27T12:13:52.359Z,30720.00
2022-12-27T12:14:52.513Z,30496.00
2022-12-27T12:15:52.325Z,30816.00
2022-12-27T12:16:52.330Z,29280.00
2022-12-27T12:17:52.299Z,27616.00
2022-12-27T12:18:52.289Z,18208.00
2022-12-27T12:19:52.305Z,26496.00
2022-12-27T12:20:52.264Z,34272.00
2022-12-27T12:21:52.240Z,34528.00
2022-12-27T12:22:52.253Z,35648.00
2022-12-27T12:23:52.241Z,34784.00
2022-12-27T12:24:52.273Z,37568.00
2022-12-27T12:25:52.235Z,41504.00
2022-12-27T12:26:55.868Z,46400.00
2022-12-27T12:27:52.182Z,28064.00
2022-12-27T12:29:00.328Z,23808.00
2022-12-27T12:29:53.183Z,18656.00
2022-12-27T12:30:52.142Z,16288.00
2022-12-27T12:31:52.196Z,17920.00
2022-12-27T12:32:52.116Z,20896.00
2022-12-27T12:33:52.117Z,24800.00
2022-12-27T12:34:52.098Z,24288.00
2022-12-27T12:35:52.101Z,19200.00
2022-12-27T12:36:52.817Z,16832.00
2022-12-27T12:37:52.076Z,15100.00
2022-12-27T12:38:52.093Z,14676.00
2022-12-27T12:39:52.058Z,15000.00
2022-12-27T12:40:52.045Z,15400.00
2022-12-27T12:41:52.064Z,16384.00
2022-12-27T12:42:52.026Z,15948.00
2022-12-27T12:43:52.029Z,15188.00
2022-12-27T12:44:52.004Z,16320.00
2022-12-27T12:45:52.019Z,18976.00
2022-12-27T12:46:51.991Z,27424.00
2022-12-27T12:47:51.969Z,31264.00
2022-12-27T12:48:51.972Z,36800.00
2022-12-27T12:49:51.927Z,36768.00
2022-12-27T12:50:54.198Z,39584.00
2022-12-27T12:51:51.961Z,39872.00
2022-12-27T12:52:51.933Z,39552.00
2022-12-27T12:53:51.920Z,39488.00
2022-12-27T12:54:51.919Z,41280.00
2022-12-27T12:55:51.876Z,40192.00
2022-12-27T12:56:51.861Z,37888.00
2022-12-27T12:57:51.854Z,37248.00
2022-12-27T12:58:51.851Z,38048.00
2022-12-27T12:59:51.830Z,36800.00
2022-12-27T13:00:51.833Z,35840.00
2022-12-27T13:01:51.883Z,34560.00
2022-12-27T13:02:51.907Z,35168.00
2022-12-27T13:03:51.793Z,38784.00
2022-12-27T13:04:51.781Z,34016.00
2022-12-27T13:05:51.759Z,33408.00
2022-12-27T13:06:51.758Z,31680.00
2022-12-27T13:07:51.752Z,32672.00
2022-12-27T13:08:51.747Z,17152.00
2022-12-27T13:09:51.710Z,24960.00
2022-12-27T13:10:51.709Z,23168.00
2022-12-27T13:11:51.700Z,15148.00
2022-12-27T13:12:53.052Z,14216.00
2022-12-27T13:13:51.684Z,15084.00
2022-12-27T13:14:51.670Z,17248.00
2022-12-27T13:15:51.657Z,16640.00
2022-12-27T13:16:51.683Z,16928.00
2022-12-27T13:17:51.765Z,17920.00
2022-12-27T13:18:51.766Z,29888.00
2022-12-27T13:19:51.607Z,24704.00
2022-12-27T13:20:51.647Z,25824.00
2022-12-27T13:21:51.593Z,17856.00
2022-12-27T13:22:51.583Z,16608.00
2022-12-27T13:23:51.570Z,14236.00
2022-12-27T13:24:51.577Z,14984.00
2022-12-27T13:25:51.559Z,16192.00
2022-12-27T13:26:51.530Z,15020.00
2022-12-27T13:27:51.539Z,21536.00
2022-12-27T13:28:51.508Z,28832.00
2022-12-27T13:29:51.506Z,20544.00
2022-12-27T13:30:51.538Z,25504.00
2022-12-27T13:31:51.470Z,36672.00
2022-12-27T13:32:51.471Z,24480.00
2022-12-27T13:33:51.464Z,11444.00
2022-12-27T13:34:51.507Z,10052.00
2022-12-27T13:35:51.439Z,10424.00
2022-12-27T13:36:51.424Z,26400.00
2022-12-27T13:37:51.412Z,15360.00
2022-12-27T13:38:51.413Z,12884.00
2022-12-27T13:39:51.406Z,16800.00
2022-12-27T13:40:51.391Z,17664.00
2022-12-27T13:41:51.371Z,17760.00
2022-12-27T13:42:51.359Z,27296.00
2022-12-27T13:43:51.374Z,29184.00
2022-12-27T13:44:51.812Z,28096.00
2022-12-27T13:45:51.357Z,26816.00
2022-12-27T13:46:51.324Z,23424.00
2022-12-27T13:47:51.307Z,19168.00
2022-12-27T13:48:51.304Z,14528.00
2022-12-27T13:49:51.277Z,11608.00
2022-12-27T13:50:51.295Z,11240.00
2022-12-27T13:51:51.258Z,11288.00
2022-12-27T13:52:55.885Z,11264.00
2022-12-27T13:53:52.253Z,11292.00
2022-12-27T13:54:51.225Z,11288.00
2022-12-27T13:55:51.207Z,11276.00
2022-12-27T13:56:54.531Z,11340.00
2022-12-27T13:57:51.196Z,11392.00
2022-12-27T13:58:56.200Z,11488.00
2022-12-27T13:59:52.188Z,11560.00
2022-12-27T14:00:51.166Z,11636.00
2022-12-27T14:01:51.253Z,11648.00
2022-12-27T14:02:51.267Z,11552.00
2022-12-27T14:03:51.143Z,11500.00
2022-12-27T14:04:56.065Z,11372.00
2022-12-27T14:05:52.147Z,11204.00
2022-12-27T14:06:51.150Z,11020.00
2022-12-27T14:07:51.093Z,10864.00
2022-12-27T14:08:51.088Z,10724.00
2022-12-27T14:09:51.057Z,10624.00
2022-12-27T14:10:55.246Z,10488.00
2022-12-27T14:11:52.037Z,10312.00
2022-12-27T14:12:51.035Z,10196.00
2022-12-27T14:13:51.041Z,10100.00
2022-12-27T14:14:51.009Z,10056.00
2022-12-27T14:15:51.030Z,10048.00
2022-12-27T14:16:55.917Z,10036.00
2022-12-27T14:17:51.978Z,10484.00
2022-12-27T14:18:51.010Z,15232.00
2022-12-27T14:19:50.960Z,20512.00
2022-12-27T14:20:50.971Z,24416.00
2022-12-27T14:21:50.949Z,24352.00
2022-12-27T14:22:54.193Z,24032.00
2022-12-27T14:23:50.933Z,22816.00
2022-12-27T14:24:50.899Z,20480.00
2022-12-27T14:25:50.945Z,17664.00
2022-12-27T14:26:50.911Z,10468.00
2022-12-27T14:27:50.871Z,7592.00
2022-12-27T14:28:56.184Z,7124.00
2022-12-27T14:29:51.843Z,6672.00
2022-12-27T14:30:50.967Z,6244.00
2022-12-27T14:31:50.826Z,5896.00
2022-12-27T14:32:50.825Z,5640.00
2022-12-27T14:33:50.809Z,5444.00
2022-12-27T14:34:55.955Z,5228.00
2022-12-27T14:35:51.792Z,4996.00
2022-12-27T14:36:50.764Z,4764.00
2022-12-27T14:37:50.774Z,4540.00
2022-12-27T14:38:50.743Z,4312.00
2022-12-27T14:39:50.735Z,4080.00
2022-12-27T14:40:50.724Z,3844.00
2022-12-27T14:41:50.726Z,3608.00
2022-12-27T14:42:50.716Z,3388.00
2022-12-27T14:43:50.694Z,3196.00
2022-12-27T14:44:50.712Z,3024.00
2022-12-27T14:45:55.532Z,2892.00
2022-12-27T14:46:51.745Z,2784.00
2022-12-27T14:47:50.671Z,2696.00
2022-12-27T14:48:50.631Z,2608.00
2022-12-27T14:49:50.641Z,2532.00
2022-12-27T14:50:50.686Z,2456.00
2022-12-27T14:52:00.711Z,2380.00
2022-12-27T14:52:51.646Z,2300.00
2022-12-27T14:53:50.594Z,2216.00
2022-12-27T14:54:50.565Z,2128.00
2022-12-27T14:55:50.575Z,2020.00
2022-12-27T14:56:50.547Z,1912.00
2022-12-27T14:57:50.566Z,1796.00
2022-12-27T14:58:50.536Z,1680.00
2022-12-27T14:59:50.527Z,1572.00
2022-12-27T15:00:50.520Z,1472.00
2022-12-27T15:01:50.630Z,1380.00
2022-12-27T15:02:50.679Z,1308.00
2022-12-27T15:03:50.511Z,1240.00
2022-12-27T15:04:50.475Z,1180.00
2022-12-27T15:05:50.489Z,1132.00
2022-12-27T15:06:50.455Z,1088.00
2022-12-27T15:07:50.439Z,1060.00
2022-12-27T15:08:50.455Z,1012.00
2022-12-27T15:09:50.419Z,964.00
2022-12-27T15:10:50.411Z,916.00
2022-12-27T15:11:50.429Z,888.00
2022-12-27T15:12:50.385Z,880.00
2022-12-27T15:13:50.442Z,864.00
2022-12-27T15:14:50.373Z,848.00
2022-12-27T15:15:50.405Z,816.00
2022-12-27T15:16:50.344Z,796.00
2022-12-27T15:17:50.335Z,776.00
2022-12-27T15:18:50.332Z,756.00
2022-12-27T15:19:50.310Z,740.00
2022-12-27T15:20:50.317Z,720.00
2022-12-27T15:21:50.281Z,704.00
2022-12-27T15:22:50.642Z,684.00
2022-12-27T15:23:50.279Z,668.00
2022-12-27T15:24:50.252Z,644.00
2022-12-27T15:25:50.240Z,612.00
2022-12-27T15:26:50.267Z,580.00
2022-12-27T15:27:50.224Z,544.00
2022-12-27T15:28:50.225Z,512.00
2022-12-27T15:29:50.203Z,472.00
2022-12-27T15:30:50.284Z,432.00
2022-12-27T15:31:50.177Z,400.00
2022-12-27T15:32:53.176Z,364.00
2022-12-27T15:33:50.162Z,332.00
2022-12-27T15:34:50.148Z,300.00
2022-12-27T15:35:50.141Z,272.00
2022-12-27T15:36:50.112Z,244.00
2022-12-27T15:37:51.613Z,220.00
2022-12-27T15:38:54.088Z,196.00
2022-12-27T15:39:50.121Z,176.00
2022-12-27T15:40:50.218Z,156.00
2022-12-27T15:41:50.087Z,140.00
2022-12-27T15:42:50.091Z,124.00
2022-12-27T15:43:50.128Z,112.00
2022-12-27T15:44:50.053Z,100.00
2022-12-27T15:45:50.024Z,88.00
2022-12-27T15:46:50.061Z,80.00
2022-12-27T15:47:50.066Z,68.00
2022-12-27T15:48:53.437Z,60.00
2022-12-27T15:49:49.985Z,56.00
2022-12-27T15:50:50.030Z,48.00
2022-12-27T15:51:49.955Z,40.00
2022-12-27T15:52:49.967Z,36.00
2022-12-27T15:53:49.959Z,32.00
2022-12-27T15:54:53.602Z,28.00
2022-12-27T15:55:49.927Z,20.00
2022-12-27T15:56:49.951Z,20.00
2022-12-27T15:57:49.917Z,16.00
2022-12-27T15:58:49.897Z,12.00
2022-12-27T15:59:49.916Z,12.00
2022-12-27T16:00:49.878Z,8.00
2022-12-27T16:01:49.934Z,8.00
2022-12-27T16:02:49.925Z,8.00
2022-12-27T16:03:49.889Z,4.00
2022-12-27T16:04:49.819Z,4.00
2022-12-27T16:05:49.811Z,4.00
2022-12-27T16:06:49.807Z,4.00
2022-12-27T16:07:49.786Z,4.00
2022-12-27T16:08:49.807Z,4.00
2022-12-27T16:09:49.767Z,0.00